Time;durP1;ratioP1;P1;durP2;ratioP2;P2;SDS_P1;SDS_P2;PMS_P1;PMS_P2;Temp;Humidity;BMP_temperature;BMP_pressure;BME280_temperature;BME280_humidity;BME280_pressure;Samples;Min_cycle;Max_cycle;Signal;HPM_P1;HPM_P2
2022/11/13 00:01:51;;;;;;;14.75;10.57;;;;;;;5.47;100.00;97614.38;5001764;28;20128;-68
2022/11/13 00:04:16;;;;;;;13.98;10.30;;;;;;;5.20;100.00;97615.31;5012189;28;20068;-69
2022/11/13 00:06:42;;;;;;;14.15;10.20;;;;;;;5.51;100.00;97611.84;5040458;28;20052;-68
2022/11/13 00:09:10;;;;;;;12.30;9.43;;;;;;;5.40;100.00;97610.50;5034938;28;20417;-66
2022/11/13 00:11:36;;;;;;;14.50;9.80;;;;;;;5.46;100.00;97601.13;5018670;28;20063;-68
2022/11/13 00:14:08;;;;;;;13.02;9.88;;;;;;;5.48;100.00;97598.91;5036055;28;20060;-67
2022/11/13 00:16:36;;;;;;;14.63;9.90;;;;;;;5.27;100.00;97604.03;5004910;28;20045;-69
2022/11/13 00:19:01;;;;;;;12.63;9.57;;;;;;;5.12;100.00;97599.78;5044459;28;20048;-68
2022/11/13 00:21:26;;;;;;;13.43;9.52;;;;;;;4.95;100.00;97611.31;5050144;28;20044;-69
2022/11/13 00:23:54;;;;;;;15.55;10.23;;;;;;;4.86;100.00;97600.41;5052298;28;20454;-69
2022/11/13 00:26:29;;;;;;;15.70;11.38;;;;;;;4.57;100.00;97595.34;5037686;28;20418;-69
2022/11/13 00:28:59;;;;;;;20.83;12.30;;;;;;;4.47;100.00;97596.38;5032166;28;20041;-68
2022/11/13 00:31:25;;;;;;;16.42;12.27;;;;;;;4.53;100.00;97595.16;5035839;28;20064;-69
2022/11/13 00:33:52;;;;;;;18.75;12.52;;;;;;;4.45;100.00;97586.91;5043458;28;20049;-67
2022/11/13 00:36:23;;;;;;;18.77;12.75;;;;;;;4.58;100.00;97567.91;5054236;28;20068;-68
2022/11/13 00:38:49;;;;;;;18.65;12.80;;;;;;;4.57;100.00;97579.88;5038929;28;20045;-69
2022/11/13 00:41:14;;;;;;;16.92;11.93;;;;;;;4.66;100.00;97571.00;5016041;28;20098;-68
2022/11/13 00:43:40;;;;;;;18.77;12.35;;;;;;;4.62;100.00;97567.31;5040331;28;20061;-68
2022/11/13 00:46:06;;;;;;;15.98;11.75;;;;;;;4.76;100.00;97571.56;5034466;28;20079;-67
2022/11/13 00:48:32;;;;;;;17.05;11.57;;;;;;;4.89;100.00;97566.41;5043065;28;20140;-68
2022/11/13 00:50:57;;;;;;;17.92;11.05;;;;;;;4.95;100.00;97562.44;5048037;28;20494;-68
2022/11/13 00:53:22;;;;;;;16.10;11.10;;;;;;;4.69;100.00;97557.63;5035253;28;20048;-68
2022/11/13 00:55:49;;;;;;;16.98;11.32;;;;;;;5.05;100.00;97551.34;5050195;28;20047;-67
2022/11/13 00:58:15;;;;;;;15.95;10.93;;;;;;;5.16;100.00;97543.72;5044585;28;20079;-67
2022/11/13 01:00:41;;;;;;;15.25;11.10;;;;;;;5.06;100.00;97542.09;5040125;28;20064;-68
2022/11/13 01:03:07;;;;;;;15.07;10.90;;;;;;;4.92;100.00;97536.72;5035563;28;20098;-68
2022/11/13 01:05:41;;;;;;;14.80;10.50;;;;;;;4.76;100.00;97543.63;5041867;28;20120;-68
2022/11/13 01:08:08;;;;;;;15.55;11.10;;;;;;;4.73;100.00;97531.47;5033561;28;20052;-68
2022/11/13 01:10:37;;;;;;;18.95;12.55;;;;;;;4.59;100.00;97526.09;5038376;28;20087;-69
2022/11/13 01:13:02;;;;;;;16.27;11.65;;;;;;;4.44;100.00;97529.16;5042277;28;20040;-67
2022/11/13 01:15:28;;;;;;;18.48;12.02;;;;;;;4.35;100.00;97529.09;5040109;28;20041;-68
2022/11/13 01:17:56;;;;;;;16.67;12.20;;;;;;;4.41;100.00;97518.91;5044730;28;20405;-67
2022/11/13 01:20:23;;;;;;;25.52;16.30;;;;;;;4.62;100.00;97521.16;5039268;28;20525;-69
2022/11/13 01:22:48;;;;;;;16.15;11.50;;;;;;;4.63;100.00;97520.03;5041980;28;20041;-69
2022/11/13 01:25:13;;;;;;;17.30;11.98;;;;;;;4.61;100.00;97520.38;5039036;28;20448;-69
2022/11/13 01:27:39;;;;;;;16.25;12.38;;;;;;;4.49;100.00;97515.47;5025032;28;20049;-68
2022/11/13 01:30:05;;;;;;;17.65;12.13;;;;;;;4.37;100.00;97515.22;5037953;28;20040;-66
2022/11/13 01:32:31;;;;;;;18.35;12.15;;;;;;;4.31;100.00;97509.09;5043294;28;20060;-69
2022/11/13 01:34:56;;;;;;;17.40;12.23;;;;;;;4.28;100.00;97504.28;5043623;28;20041;-69
2022/11/13 01:37:22;;;;;;;19.60;12.85;;;;;;;4.17;100.00;97501.00;5035876;28;20052;-69
2022/11/13 01:39:47;;;;;;;18.67;13.02;;;;;;;4.13;100.00;97504.66;5035007;28;20382;-68
2022/11/13 01:42:13;;;;;;;20.10;13.82;;;;;;;4.05;100.00;97500.72;5038090;28;20163;-69
2022/11/13 01:44:51;;;;;;;20.73;14.27;;;;;;;4.00;100.00;97498.16;5041826;28;20051;-68
2022/11/13 01:47:17;;;;;;;23.67;14.68;;;;;;;3.97;100.00;97493.31;5029865;28;20487;-68
2022/11/13 01:49:44;;;;;;;20.58;13.70;;;;;;;3.94;100.00;97485.78;5042872;28;20059;-68
2022/11/13 01:52:14;;;;;;;23.02;15.43;;;;;;;3.91;100.00;97478.28;5034662;28;20080;-68
2022/11/13 01:54:45;;;;;;;22.15;15.40;;;;;;;3.88;100.00;97473.47;5043291;28;20045;-69
2022/11/13 01:57:12;;;;;;;24.00;15.55;;;;;;;3.95;100.00;97482.78;5037858;28;20036;-68
2022/11/13 01:59:42;;;;;;;22.92;15.43;;;;;;;3.90;100.00;97479.38;5042808;28;20061;-68
2022/11/13 02:02:08;;;;;;;25.75;16.27;;;;;;;3.87;100.00;97466.44;5044162;28;20044;-68
2022/11/13 02:04:35;;;;;;;24.73;16.50;;;;;;;3.78;100.00;97469.88;5052945;28;20037;-69
2022/11/13 02:07:06;;;;;;;25.25;15.55;;;;;;;3.88;100.00;97473.47;5048074;28;20452;-69
2022/11/13 02:09:41;;;;;;;23.95;16.00;;;;;;;3.79;100.00;97471.47;5041291;28;20053;-69
2022/11/13 02:12:10;;;;;;;24.55;15.73;;;;;;;3.80;100.00;97467.66;5037444;28;20403;-69
2022/11/13 02:14:41;;;;;;;22.20;14.47;;;;;;;3.89;100.00;97459.63;5041180;28;20146;-69
2022/11/13 02:17:10;;;;;;;22.48;15.18;;;;;;;3.82;100.00;97467.34;5019832;28;20132;-69
2022/11/13 02:19:39;;;;;;;21.55;14.63;;;;;;;3.88;100.00;97454.50;5041417;28;20036;-68
2022/11/13 02:22:42;;;;;;;22.50;15.65;;;;;;;3.91;100.00;97448.47;5054504;28;20049;-67
2022/11/13 02:25:10;;;;;;;20.10;13.52;;;;;;;3.87;100.00;97444.75;5039868;28;20474;-68
2022/11/13 02:27:43;;;;;;;19.88;13.85;;;;;;;3.82;100.00;97440.25;5047986;28;20032;-69
2022/11/13 02:30:17;;;;;;;20.38;13.90;;;;;;;3.80;100.00;97437.84;5045659;28;20140;-68
2022/11/13 02:32:48;;;;;;;21.85;15.02;;;;;;;3.82;100.00;97440.25;5043350;28;20781;-68
2022/11/13 02:35:18;;;;;;;22.48;14.90;;;;;;;3.74;100.00;97436.34;5036135;28;20112;-68
2022/11/13 02:37:43;;;;;;;19.52;13.65;;;;;;;3.66;100.00;97434.38;5041607;28;20044;-68
2022/11/13 02:40:09;;;;;;;21.08;14.73;;;;;;;3.62;100.00;97438.78;5036796;28;20052;-68
2022/11/13 02:42:35;;;;;;;21.02;14.90;;;;;;;3.64;100.00;97439.28;5042122;28;20120;-68
2022/11/13 02:45:00;;;;;;;21.42;14.20;;;;;;;3.57;100.00;97433.47;5041833;28;20557;-67
2022/11/13 02:47:27;;;;;;;22.00;14.77;;;;;;;3.58;100.00;97432.34;5034626;28;20049;-69
2022/11/13 02:49:52;;;;;;;19.75;13.70;;;;;;;3.58;100.00;97429.66;5040391;28;20044;-70
2022/11/13 02:52:18;;;;;;;21.35;14.45;;;;;;;3.47;100.00;97429.06;5035464;28;20053;-69
2022/11/13 02:54:43;;;;;;;18.67;13.60;;;;;;;3.48;100.00;97424.47;5020534;28;20038;-69
2022/11/13 02:57:08;;;;;;;18.80;13.15;;;;;;;3.47;100.00;97423.63;5018577;28;20080;-69
2022/11/13 02:59:34;;;;;;;20.20;13.60;;;;;;;3.48;100.00;97419.84;5038818;28;20081;-69
2022/11/13 03:01:59;;;;;;;19.80;14.13;;;;;;;3.44;100.00;97410.72;5038070;28;20597;-69
2022/11/13 03:04:25;;;;;;;19.42;13.82;;;;;;;3.41;100.00;97411.31;5032819;28;20132;-69
2022/11/13 03:06:50;;;;;;;23.55;13.90;;;;;;;3.45;100.00;97410.41;5038409;28;20044;-68
2022/11/13 03:09:15;;;;;;;21.95;14.40;;;;;;;3.45;100.00;97404.97;5036257;28;20033;-68
2022/11/13 03:11:42;;;;;;;16.60;12.80;;;;;;;3.42;100.00;97411.03;5041160;28;20040;-68
2022/11/13 03:14:08;;;;;;;19.77;13.05;;;;;;;3.45;100.00;97407.69;5033022;28;20080;-68
2022/11/13 03:16:34;;;;;;;22.42;13.75;;;;;;;3.48;100.00;97397.38;5040398;28;20065;-68
2022/11/13 03:19:00;;;;;;;19.15;13.57;;;;;;;3.45;100.00;97407.69;5038720;28;20096;-68
2022/11/13 03:21:25;;;;;;;21.17;13.48;;;;;;;3.46;100.00;97400.38;5035533;28;20115;-68
2022/11/13 03:23:52;;;;;;;20.75;13.38;;;;;;;3.53;100.00;97402.66;5020872;28;20053;-69
2022/11/13 03:26:18;;;;;;;20.08;13.82;;;;;;;3.50;100.00;97390.53;5032521;28;20036;-69
2022/11/13 03:28:43;;;;;;;19.02;12.90;;;;;;;3.44;100.00;97389.84;5019923;28;21775;-69
2022/11/13 03:31:09;;;;;;;19.30;13.25;;;;;;;3.47;100.00;97384.94;5014224;28;20045;-69
2022/11/13 03:33:34;;;;;;;16.45;12.30;;;;;;;3.41;100.00;97379.63;5040122;28;20045;-69
2022/11/13 03:36:00;;;;;;;19.10;12.68;;;;;;;3.36;100.00;97387.84;5039549;28;20040;-68
2022/11/13 03:38:26;;;;;;;20.80;12.73;;;;;;;3.37;100.00;97389.47;5033197;28;20040;-68
2022/11/13 03:40:51;;;;;;;15.45;11.98;;;;;;;3.36;100.00;97387.06;5038582;28;20037;-68
2022/11/13 03:43:17;;;;;;;17.40;11.93;;;;;;;3.38;100.00;97382.91;5015039;28;20084;-68
2022/11/13 03:45:46;;;;;;;16.92;11.80;;;;;;;3.28;100.00;97377.75;5019177;28;20494;-67
2022/11/13 03:48:12;;;;;;;15.60;11.95;;;;;;;3.25;100.00;97376.41;5032857;28;20045;-68
2022/11/13 03:50:38;;;;;;;17.42;10.98;;;;;;;3.24;100.00;97369.41;5040457;28;20024;-68
2022/11/13 03:53:04;;;;;;;15.73;11.25;;;;;;;3.29;100.00;97378.53;5033565;28;20060;-67
2022/11/13 03:55:29;;;;;;;16.50;10.85;;;;;;;3.25;100.00;97381.03;5039428;28;20045;-68
2022/11/13 03:57:55;;;;;;;19.73;11.88;;;;;;;3.28;100.00;97364.19;5042350;28;20044;-68
2022/11/13 04:00:20;;;;;;;17.35;11.13;;;;;;;3.33;100.00;97371.41;5044644;28;20076;-68
2022/11/13 04:02:46;;;;;;;17.13;11.77;;;;;;;3.31;100.00;97365.50;5044034;28;20406;-68
2022/11/13 04:05:11;;;;;;;19.55;11.93;;;;;;;3.34;100.00;97367.59;5014848;28;20118;-68
2022/11/13 04:07:36;;;;;;;15.68;10.95;;;;;;;3.40;100.00;97369.09;5037501;28;20048;-68
2022/11/13 04:10:02;;;;;;;16.70;11.40;;;;;;;3.35;100.00;97361.88;5037262;28;20040;-67
2022/11/13 04:12:29;;;;;;;16.15;11.35;;;;;;;3.28;100.00;97360.66;5039526;28;20997;-68
2022/11/13 04:14:54;;;;;;;16.70;11.25;;;;;;;3.31;100.00;97366.28;5037780;28;20037;-68
2022/11/13 04:17:20;;;;;;;15.85;11.23;;;;;;;3.33;100.00;97358.69;5032533;28;20037;-68
2022/11/13 04:19:46;;;;;;;15.88;11.55;;;;;;;3.41;100.00;97352.53;5035229;28;20041;-68
2022/11/13 04:22:12;;;;;;;16.65;11.57;;;;;;;3.43;100.00;97346.81;5034904;28;20048;-68
2022/11/13 04:24:37;;;;;;;16.83;9.80;;;;;;;3.48;100.00;97351.34;5021644;28;20064;-68
2022/11/13 04:27:03;;;;;;;13.50;10.27;;;;;;;3.37;100.00;97342.63;5035195;28;20067;-67
2022/11/13 04:29:29;;;;;;;18.88;10.10;;;;;;;3.34;100.00;97354.84;5035227;28;20045;-68
2022/11/13 04:31:54;;;;;;;15.35;10.77;;;;;;;3.33;100.00;97344.31;5039472;28;20037;-68
2022/11/13 04:34:19;;;;;;;16.08;10.93;;;;;;;3.30;100.00;97339.53;5033120;28;20068;-68
2022/11/13 04:36:45;;;;;;;17.45;11.25;;;;;;;3.29;100.00;97340.63;5038149;28;20083;-68
2022/11/13 04:39:10;;;;;;;16.95;12.02;;;;;;;3.27;100.00;97332.00;5032784;28;20128;-67
2022/11/13 04:44:20;;;;;;;17.50;11.95;;;;;;;3.25;100.00;97330.41;5048699;28;20115;-67
2022/11/13 04:46:45;;;;;;;20.52;12.77;;;;;;;3.27;100.00;97332.81;5048347;28;20053;-67
2022/11/13 04:49:11;;;;;;;19.35;13.40;;;;;;;3.29;100.00;97325.19;5019955;28;20037;-67
2022/11/13 04:51:36;;;;;;;18.45;12.63;;;;;;;3.30;100.00;97329.50;5038440;28;20098;-67
2022/11/13 04:54:01;;;;;;;19.77;12.85;;;;;;;3.37;100.00;97320.97;5041421;28;20388;-67
2022/11/13 04:56:27;;;;;;;16.10;11.32;;;;;;;3.43;100.00;97325.94;5047386;28;20049;-71
2022/11/13 04:58:52;;;;;;;19.20;12.70;;;;;;;3.40;100.00;97310.34;5051628;28;20041;-68
2022/11/13 05:01:18;;;;;;;16.40;11.63;;;;;;;3.44;100.00;97318.66;5043501;28;20041;-67
2022/11/13 05:03:43;;;;;;;16.33;11.43;;;;;;;3.41;100.00;97314.63;5047333;28;20112;-68
2022/11/13 05:06:09;;;;;;;18.17;11.02;;;;;;;3.54;100.00;97309.47;5041011;28;20041;-68
2022/11/13 05:08:35;;;;;;;16.33;11.35;;;;;;;3.36;100.00;97305.81;5039602;28;20041;-68
2022/11/13 05:11:02;;;;;;;21.35;13.18;;;;;;;3.32;100.00;97312.94;5039829;28;20114;-68
2022/11/13 05:13:32;;;;;;;17.50;11.88;;;;;;;3.30;100.00;97302.44;5035083;28;20033;-68
2022/11/13 05:16:07;;;;;;;18.15;12.18;;;;;;;3.28;100.00;97304.63;5039434;28;20044;-67
2022/11/13 05:18:35;;;;;;;18.10;12.90;;;;;;;3.28;100.00;97309.22;5038338;28;20506;-67
2022/11/13 05:21:01;;;;;;;16.33;11.80;;;;;;;3.29;100.00;97297.31;5039825;28;20235;-69
2022/11/13 05:23:26;;;;;;;17.80;11.90;;;;;;;3.28;100.00;97293.81;5033038;28;20049;-69
2022/11/13 05:25:52;;;;;;;17.38;11.65;;;;;;;3.28;100.00;97296.50;5039211;28;20505;-69
2022/11/13 05:28:18;;;;;;;17.02;12.00;;;;;;;3.23;100.00;97293.91;5033336;28;20070;-68
2022/11/13 05:30:43;;;;;;;18.08;13.15;;;;;;;3.18;100.00;97286.69;5040179;28;20041;-69
2022/11/13 05:33:09;;;;;;;18.05;12.60;;;;;;;3.22;100.00;97281.47;5049530;28;20041;-68
2022/11/13 05:35:34;;;;;;;16.52;12.48;;;;;;;3.19;100.00;97272.06;5037542;28;20048;-68
2022/11/13 05:38:01;;;;;;;18.85;13.25;;;;;;;3.18;100.00;97269.66;5038212;28;20106;-68
2022/11/13 05:40:27;;;;;;;18.77;12.85;;;;;;;3.21;100.00;97274.47;5034286;28;20064;-68
2022/11/13 05:42:53;;;;;;;20.00;14.13;;;;;;;3.22;100.00;97271.47;5037769;28;20037;-68
2022/11/13 05:45:19;;;;;;;18.92;13.27;;;;;;;3.22;100.00;97273.34;5033929;28;20045;-68
2022/11/13 05:47:44;;;;;;;20.27;13.05;;;;;;;3.23;100.00;97275.75;5038598;28;20128;-68
2022/11/13 05:50:09;;;;;;;20.90;13.80;;;;;;;3.23;100.00;97267.63;5031617;28;20036;-67
2022/11/13 05:52:35;;;;;;;20.55;13.70;;;;;;;3.31;100.00;97271.53;5021209;28;20041;-68
2022/11/13 05:55:00;;;;;;;20.85;14.00;;;;;;;3.27;100.00;97273.25;5021568;28;20132;-68
2022/11/13 05:57:26;;;;;;;21.83;13.80;;;;;;;3.22;100.00;97284.19;5012396;28;20073;-67
2022/11/13 05:59:52;;;;;;;19.45;13.52;;;;;;;3.25;100.00;97281.66;5024805;28;20753;-67
2022/11/13 06:02:17;;;;;;;22.73;14.32;;;;;;;3.27;100.00;97273.25;5036442;28;20045;-67
2022/11/13 06:04:43;;;;;;;19.77;14.23;;;;;;;3.28;100.00;97272.16;5042673;28;20402;-68
2022/11/13 06:07:08;;;;;;;23.23;13.65;;;;;;;3.41;100.00;97275.91;5037118;28;20138;-68
2022/11/13 06:09:33;;;;;;;20.85;13.88;;;;;;;3.37;100.00;97266.81;5040913;28;20164;-67
2022/11/13 06:11:59;;;;;;;20.67;13.57;;;;;;;3.46;100.00;97264.97;5042807;28;20128;-67
2022/11/13 06:14:24;;;;;;;22.48;14.63;;;;;;;3.39;100.00;97268.09;5035197;28;20367;-68
2022/11/13 06:16:50;;;;;;;22.20;14.40;;;;;;;3.38;100.00;97271.91;5041597;28;20033;-67
2022/11/13 06:19:15;;;;;;;19.92;13.55;;;;;;;3.40;100.00;97277.84;5019209;28;20044;-68
2022/11/13 06:21:41;;;;;;;20.35;14.38;;;;;;;3.41;100.00;97257.75;5042871;28;20094;-68
2022/11/13 06:24:09;;;;;;;20.13;13.65;;;;;;;3.43;100.00;97266.38;5036918;28;20037;-68
2022/11/13 06:26:35;;;;;;;19.33;13.35;;;;;;;3.32;100.00;97261.50;5040946;28;20087;-67
2022/11/13 06:29:03;;;;;;;21.27;13.82;;;;;;;3.47;100.00;97258.44;5024436;28;20037;-70
2022/11/13 06:31:31;;;;;;;20.13;13.63;;;;;;;3.45;100.00;97260.66;5040544;28;20037;-69
2022/11/13 06:33:58;;;;;;;22.50;14.23;;;;;;;3.34;100.00;97256.59;5040985;28;20052;-69
2022/11/13 06:36:25;;;;;;;23.85;13.95;;;;;;;3.36;100.00;97259.78;5035267;28;20118;-69
2022/11/13 06:38:51;;;;;;;34.25;23.65;;;;;;;3.48;100.00;97261.97;5040000;28;20033;-69
2022/11/13 06:41:20;;;;;;;23.73;16.55;;;;;;;3.46;100.00;97256.84;5037198;28;20106;-68
2022/11/13 06:43:47;;;;;;;39.03;26.48;;;;;;;3.51;100.00;97264.03;5041748;28;20402;-69
2022/11/13 06:46:15;;;;;;;20.52;14.60;;;;;;;3.49;100.00;97258.13;5035291;28;20045;-68
2022/11/13 06:48:41;;;;;;;22.15;16.75;;;;;;;3.55;100.00;97257.72;5042053;28;20751;-68
2022/11/13 06:51:10;;;;;;;20.08;15.48;;;;;;;3.56;100.00;97255.81;5035716;28;20041;-68
2022/11/13 06:53:36;;;;;;;;;;;;;;;3.61;100.00;97251.06;5039617;28;20073;-68
2022/11/13 06:56:04;;;;;;;20.05;14.77;;;;;;;3.47;100.00;97250.31;5041960;28;19962;-68
2022/11/13 06:58:29;;;;;;;21.40;13.52;;;;;;;3.47;100.00;97247.59;5041098;28;20068;-68
2022/11/13 07:00:54;;;;;;;20.63;14.73;;;;;;;3.44;100.00;97249.03;5042934;28;20494;-67
2022/11/13 07:03:23;;;;;;;28.30;17.45;;;;;;;3.42;100.00;97248.53;5049010;28;20371;-67
2022/11/13 07:05:48;;;;;;;22.05;14.30;;;;;;;3.42;100.00;97253.97;5044608;28;20045;-67
2022/11/13 07:08:15;;;;;;;21.98;15.50;;;;;;;3.49;100.00;97239.19;5035204;28;20514;-67
2022/11/13 07:10:41;;;;;;;19.63;14.90;;;;;;;3.47;100.00;97238.69;5041018;28;20044;-67
2022/11/13 07:13:07;;;;;;;23.23;16.58;;;;;;;3.42;100.00;97236.88;5033951;28;20052;-67
2022/11/13 07:15:34;;;;;;;23.48;15.82;;;;;;;3.44;100.00;97240.91;5022444;28;20122;-67
2022/11/13 07:18:01;;;;;;;23.38;15.23;;;;;;;3.44;100.00;97242.81;5036228;28;20128;-67
2022/11/13 07:20:27;;;;;;;23.85;16.35;;;;;;;3.49;100.00;97239.19;5016682;28;20042;-68
2022/11/13 07:23:00;;;;;;;22.95;16.30;;;;;;;3.54;100.00;97242.56;5004156;28;20056;-69
2022/11/13 07:25:27;;;;;;;25.27;17.50;;;;;;;3.57;100.00;97250.06;5035331;28;20107;-68
2022/11/13 07:27:52;;;;;;;23.05;16.58;;;;;;;3.53;100.00;97246.41;5041413;28;20159;-67
2022/11/13 07:30:18;;;;;;;23.63;15.98;;;;;;;3.47;100.00;97244.09;5039109;28;20643;-67
2022/11/13 07:32:44;;;;;;;24.65;17.38;;;;;;;3.44;100.00;97240.91;5057108;28;20478;-68
2022/11/13 07:35:09;;;;;;;21.80;15.00;;;;;;;3.50;100.00;97236.16;5050066;28;20127;-68
2022/11/13 07:37:35;;;;;;;22.80;15.57;;;;;;;3.54;100.00;97234.44;5030515;28;20037;-68
2022/11/13 07:40:01;;;;;;;21.40;14.43;;;;;;;3.43;100.00;97223.03;5028928;28;20037;-68
2022/11/13 07:42:27;;;;;;;22.42;15.32;;;;;;;3.51;100.00;97224.25;5035227;28;20766;-67
2022/11/13 07:44:53;;;;;;;24.98;17.48;;;;;;;3.47;100.00;97225.94;5041806;28;20040;-67
2022/11/13 07:47:18;;;;;;;23.70;15.88;;;;;;;3.45;100.00;97218.13;5035149;28;20575;-67
2022/11/13 07:49:43;;;;;;;24.05;16.88;;;;;;;3.44;100.00;97221.94;5022592;28;20039;-68
2022/11/13 07:52:09;;;;;;;22.92;16.08;;;;;;;3.37;100.00;97221.56;5014481;28;20064;-67
2022/11/13 07:54:34;;;;;;;22.85;15.50;;;;;;;3.38;100.00;97209.63;5039215;28;20044;-68
2022/11/13 07:57:00;;;;;;;22.40;15.38;;;;;;;3.45;100.00;97209.19;5040221;28;20044;-68
2022/11/13 07:59:26;;;;;;;24.17;16.08;;;;;;;3.45;100.00;97214.63;5034549;28;20156;-65
2022/11/13 08:01:52;;;;;;;23.88;15.38;;;;;;;3.37;100.00;97227.00;5040818;28;20120;-69
2022/11/13 08:04:17;;;;;;;25.73;15.90;;;;;;;3.37;100.00;97224.28;5035033;28;20044;-68
2022/11/13 08:06:43;;;;;;;22.05;15.23;;;;;;;3.47;100.00;97230.56;5040330;28;20157;-69
2022/11/13 08:09:08;;;;;;;26.35;20.05;;;;;;;3.41;100.00;97214.44;5035374;28;20057;-69
2022/11/13 08:11:34;;;;;;;25.42;18.65;;;;;;;3.38;100.00;97208.81;5041615;28;20393;-69
2022/11/13 08:13:59;;;;;;;23.05;16.88;;;;;;;3.45;100.00;97225.44;5041647;28;20048;-68
2022/11/13 08:16:25;;;;;;;22.75;15.25;;;;;;;3.35;100.00;97223.78;5043212;28;20076;-69
2022/11/13 08:18:50;;;;;;;25.85;18.02;;;;;;;3.48;100.00;97208.59;5047994;28;20032;-69
2022/11/13 08:21:16;;;;;;;28.33;21.52;;;;;;;3.43;100.00;97212.22;5035110;28;20047;-68
2022/11/13 08:23:41;;;;;;;20.23;15.35;;;;;;;3.41;100.00;97208.22;5040764;28;20095;-69
2022/11/13 08:26:08;;;;;;;21.95;15.30;;;;;;;3.37;100.00;97207.25;5034665;28;20160;-67
2022/11/13 08:28:34;;;;;;;20.77;14.52;;;;;;;3.36;100.00;97200.22;5040372;28;20123;-68
2022/11/13 08:31:01;;;;;;;25.10;14.73;;;;;;;3.38;100.00;97209.63;5039985;28;20047;-69
2022/11/13 08:33:27;;;;;;;20.65;13.63;;;;;;;3.39;100.00;97207.72;5034077;28;20074;-68
2022/11/13 08:35:57;;;;;;;23.30;15.70;;;;;;;3.48;100.00;97202.38;5039697;28;20120;-68
2022/11/13 08:38:23;;;;;;;20.38;16.05;;;;;;;3.33;100.00;97196.22;5035037;28;20055;-68
2022/11/13 08:40:49;;;;;;;17.60;13.80;;;;;;;3.39;100.00;97213.16;5039869;28;20041;-69
2022/11/13 08:43:15;;;;;;;21.30;15.35;;;;;;;3.42;100.00;97205.22;5035178;28;20048;-69
2022/11/13 08:45:40;;;;;;;22.30;14.35;;;;;;;3.38;100.00;97198.78;5053319;28;20041;-69
2022/11/13 08:48:06;;;;;;;20.75;15.05;;;;;;;3.47;100.00;97200.78;5034463;28;20056;-70
2022/11/13 08:50:32;;;;;;;19.15;13.43;;;;;;;3.50;100.00;97200.16;5040041;28;20520;-68
2022/11/13 08:52:59;;;;;;;18.23;12.10;;;;;;;3.43;100.00;97195.97;5040169;28;20712;-69
2022/11/13 08:55:26;;;;;;;17.50;12.10;;;;;;;3.54;100.00;97203.84;5033776;28;20510;-68
2022/11/13 08:57:52;;;;;;;19.73;13.07;;;;;;;3.57;100.00;97195.91;5049159;28;20045;-68
2022/11/13 09:00:19;;;;;;;16.45;12.88;;;;;;;3.62;100.00;97178.75;5050140;28;20040;-68
2022/11/13 09:02:45;;;;;;;16.73;12.43;;;;;;;3.67;100.00;97172.38;5054036;28;20391;-68
2022/11/13 09:05:10;;;;;;;18.42;13.70;;;;;;;3.48;100.00;97186.94;5035613;28;20067;-68
2022/11/13 09:07:36;;;;;;;20.38;13.43;;;;;;;3.61;100.00;97186.03;5038950;28;20044;-68
2022/11/13 09:10:02;;;;;;;18.02;12.82;;;;;;;3.88;100.00;97169.94;5039887;28;20094;-69
2022/11/13 09:12:27;;;;;;;18.88;12.85;;;;;;;3.87;100.00;97160.22;5036269;28;20045;-69
2022/11/13 09:14:53;;;;;;;16.92;12.90;;;;;;;3.97;100.00;97176.22;5039932;28;20051;-69
2022/11/13 09:17:18;;;;;;;17.00;13.38;;;;;;;3.66;100.00;97179.72;5033606;28;20424;-69
2022/11/13 09:19:43;;;;;;;17.00;12.27;;;;;;;3.67;100.00;97183.22;5040479;28;20041;-69
2022/11/13 09:22:10;;;;;;;17.17;12.82;;;;;;;3.72;100.00;97207.47;5035571;28;20385;-68
2022/11/13 09:24:36;;;;;;;19.70;12.50;;;;;;;3.58;100.00;97204.81;5040258;28;20041;-71
2022/11/13 09:27:01;;;;;;;17.42;13.23;;;;;;;3.41;100.00;97211.72;5039672;28;20075;-68
2022/11/13 09:29:27;;;;;;;20.95;13.98;;;;;;;3.33;100.00;97208.94;5019687;28;20060;-68
2022/11/13 09:31:53;;;;;;;17.60;14.35;;;;;;;3.29;100.00;97224.22;5037961;28;20404;-68
2022/11/13 09:34:19;;;;;;;20.40;14.32;;;;;;;3.39;100.00;97205.03;5037890;28;20049;-68
2022/11/13 09:36:44;;;;;;;18.27;12.52;;;;;;;3.50;100.00;97197.47;5024858;28;20102;-67
2022/11/13 09:39:10;;;;;;;20.98;14.02;;;;;;;3.61;100.00;97177.91;5038220;28;20397;-68
2022/11/13 09:41:48;;;;;;;18.30;12.73;;;;;;;3.48;100.00;97173.38;5043670;28;20447;-68
2022/11/13 09:44:46;;;;;;;16.40;12.10;;;;;;;3.81;100.00;97168.47;5021744;28;20513;-68
2022/11/13 09:47:26;;;;;;;16.58;11.90;;;;;;;3.89;100.00;97161.50;5027777;28;20056;-68
2022/11/13 09:50:17;;;;;;;17.80;11.80;;;;;;;3.83;100.00;97171.69;5023846;28;20041;-68
2022/11/13 09:52:44;;;;;;;14.80;11.43;;;;;;;3.61;100.00;97169.78;5024732;28;20037;-67
2022/11/13 09:55:16;;;;;;;15.15;11.35;;;;;;;3.68;100.00;97163.16;5037202;28;20440;-69
2022/11/13 10:14:45;;;;;;;17.17;11.25;;;;;;;3.64;100.00;97171.91;4980586;28;20194;-71
2022/11/13 10:17:27;;;;;;;17.23;11.25;;;;;;;3.75;100.00;97158.88;5040294;28;20037;-68
2022/11/13 10:20:03;;;;;;;15.68;11.95;;;;;;;3.83;100.00;97158.13;5051212;28;20049;-70
2022/11/13 10:22:34;;;;;;;16.40;10.68;;;;;;;3.88;100.00;97151.78;5052154;28;20104;-69
2022/11/13 10:25:15;;;;;;;16.75;10.70;;;;;;;3.81;100.00;97152.22;5050403;28;20032;-69
2022/11/13 10:27:41;;;;;;;15.23;11.18;;;;;;;3.75;100.00;97145.34;5044119;28;20052;-70
2022/11/13 10:30:17;;;;;;;15.90;11.00;;;;;;;3.65;100.00;97137.47;5035787;28;20048;-68
2022/11/13 10:32:44;;;;;;;16.17;10.88;;;;;;;3.62;100.00;97148.94;5024669;28;20045;-68
2022/11/13 10:35:44;;;;;;;15.77;11.82;;;;;;;3.70;100.00;97163.63;5036283;28;20041;-70
2022/11/13 10:38:18;;;;;;;19.25;12.73;;;;;;;3.54;100.00;97155.88;5035809;28;20033;-68
2022/11/13 10:40:44;;;;;;;27.45;16.98;;;;;;;3.64;100.00;97144.81;5042668;28;20048;-69
2022/11/13 10:43:14;;;;;;;19.92;12.40;;;;;;;3.65;100.00;97140.19;5037188;28;20044;-70
2022/11/13 10:45:42;;;;;;;15.73;10.98;;;;;;;3.89;100.00;97139.00;5041404;28;20041;-69
2022/11/13 10:48:22;;;;;;;18.10;11.30;;;;;;;3.79;100.00;97137.38;5036477;28;20056;-69
2022/11/13 10:51:03;;;;;;;20.98;11.93;;;;;;;3.99;100.00;97122.47;5040492;28;20564;-69
2022/11/13 10:53:41;;;;;;;14.32;10.43;;;;;;;4.05;100.00;97121.22;5038877;28;20051;-68
2022/11/13 10:56:21;;;;;;;16.27;10.40;;;;;;;4.65;100.00;97122.50;5035853;28;20041;-69
2022/11/13 10:59:12;;;;;;;13.13;9.75;;;;;;;4.54;100.00;97111.16;5008338;28;20088;-66
2022/11/13 11:01:39;;;;;;;16.40;9.95;;;;;;;4.27;100.00;97105.97;5039228;28;20033;-66
2022/11/13 11:04:06;;;;;;;17.27;9.90;;;;;;;4.12;100.00;97102.59;5019763;28;20517;-68
2022/11/13 11:06:36;;;;;;;15.45;9.95;;;;;;;4.04;100.00;97100.66;5041549;28;20048;-66
2022/11/13 11:09:24;;;;;;;13.77;9.85;;;;;;;3.94;100.00;97087.38;5039726;28;20493;-67
2022/11/13 11:12:20;;;;;;;14.35;9.90;;;;;;;4.09;100.00;97081.53;5034916;28;20041;-67
2022/11/13 11:14:57;;;;;;;14.32;9.27;;;;;;;3.98;100.00;97074.81;5041533;28;20033;-67
2022/11/13 11:17:30;;;;;;;13.75;9.20;;;;;;;3.95;100.00;97076.25;5035701;28;20197;-67
2022/11/13 11:20:06;;;;;;;15.68;9.48;;;;;;;3.99;100.00;97076.41;5041191;28;20095;-66
2022/11/13 11:22:35;;;;;;;13.25;8.55;;;;;;;3.92;100.00;97065.22;5024695;28;20033;-67
2022/11/13 11:25:09;;;;;;;18.20;9.32;;;;;;;4.42;100.00;97061.34;5009566;28;20033;-66
2022/11/13 11:28:08;;;;;;;18.90;10.93;;;;;;;4.39;100.00;97043.78;5041892;28;20060;-68
2022/11/13 11:30:44;;;;;;;15.00;9.50;;;;;;;4.31;100.00;97050.00;5008796;28;20132;-68
2022/11/13 11:33:18;;;;;;;12.77;8.95;;;;;;;4.25;100.00;97056.69;5036101;28;20068;-67
2022/11/13 11:35:58;;;;;;;14.40;9.30;;;;;;;4.10;100.00;97058.72;5041518;28;20036;-68
2022/11/13 11:38:47;;;;;;;12.73;8.27;;;;;;;4.01;100.00;97055.22;5036474;28;20279;-68
2022/11/13 11:41:16;;;;;;;12.70;8.85;;;;;;;4.07;100.00;97037.69;5018537;28;20041;-68
2022/11/13 11:43:53;;;;;;;22.13;9.13;;;;;;;4.72;100.00;97030.56;5042346;28;20037;-68